Ashland, New York
Current Conditions -  °F | °C
As of 10:51 PM on Monday 20 Oct 2014 (Local Time) from KALB Reporting Station
Overcast Overcast  
Wind Chill: 52°   Ceiling: 8000
Heat Index: 52°   Visibility: 10mi
Dew Point: 37°   Wind: 8mph
Humidity: 57%   Direction: 170°S
Pressure: 29.95"   Gusts: NA
Location:  42.3°N, 74.33°W
Report Text: KALB 210251Z 17007KT 10SM OVC080 11/03 A2995 RMK AO2 SLP142 T01110028 53003
Loading
Personal Weather Stations






























Interactive Weather Map
Tropical Storm Tracking
New forecast layout! Learn more

10-Day Weather Forecast

Advertisements
Track Severe Weather on mobile